Time;durP1;ratioP1;P1;durP2;ratioP2;P2;SDS_P1;SDS_P2;PMS_P1;PMS_P2;Temp;Humidity;BMP_temperature;BMP_pressure;BME280_temperature;BME280_humidity;BME280_pressure;Samples;Min_cycle;Max_cycle;Signal;HPM_P1;HPM_P2
2022/02/02 00:00:35;;;;;;;3.83;1.73;;;9.40;95.60;;;;;;5093686;27;20074;-63
2022/02/02 00:03:10;;;;;;;4.70;2.10;;;9.50;95.60;;;;;;5097970;27;20375;-63
2022/02/02 00:08:23;;;;;;;5.75;2.65;;;9.40;95.50;;;;;;5115702;27;20538;-63
2022/02/02 00:19:07;;;;;;;7.05;2.53;;;9.30;95.40;;;;;;5103187;28;20440;-64
2022/02/02 00:24:09;;;;;;;7.45;3.20;;;9.30;95.40;;;;;;5130257;27;20131;-65
2022/02/02 00:26:41;;;;;;;7.25;2.22;;;9.30;95.40;;;;;;5112206;27;20447;-64
2022/02/02 00:29:17;;;;;;;5.55;2.85;;;9.30;95.50;;;;;;5088854;28;20039;-65
2022/02/02 00:31:51;;;;;;;3.67;2.72;;;9.30;95.50;;;;;;5113480;27;20500;-63
2022/02/02 00:34:23;;;;;;;4.35;2.42;;;9.30;95.50;;;;;;5094189;27;20063;-63
2022/02/02 00:36:58;;;;;;;2.78;2.03;;;9.30;95.40;;;;;;5098907;27;20130;-62
2022/02/02 00:39:28;;;;;;;3.00;1.70;;;9.20;95.50;;;;;;5115414;27;20035;-63
2022/02/02 00:41:57;;;;;;;4.68;2.47;;;9.20;95.30;;;;;;5094875;28;20040;-62
2022/02/02 00:44:26;;;;;;;3.97;2.53;;;9.30;95.20;;;;;;5103724;27;20080;-63
2022/02/02 00:46:55;;;;;;;4.90;2.97;;;9.20;95.20;;;;;;5127001;27;20100;-64
2022/02/02 00:49:23;;;;;;;4.88;2.35;;;9.20;95.00;;;;;;5132884;27;20054;-63
2022/02/02 00:51:56;;;;;;;7.68;2.72;;;9.20;94.90;;;;;;5114473;27;20039;-63
2022/02/02 00:54:27;;;;;;;4.28;2.30;;;9.20;94.80;;;;;;5098223;27;20055;-63
2022/02/02 00:56:56;;;;;;;6.28;2.22;;;9.20;94.90;;;;;;5114893;27;20046;-63
2022/02/02 00:59:25;;;;;;;4.43;2.28;;;9.20;94.70;;;;;;5095970;27;20101;-63
2022/02/02 01:01:53;;;;;;;4.47;2.28;;;9.20;94.80;;;;;;5098149;27;20046;-63
2022/02/02 01:04:20;;;;;;;3.33;2.35;;;9.20;94.80;;;;;;5134053;27;20039;-63
2022/02/02 01:07:15;;;;;;;3.78;1.83;;;9.20;94.60;;;;;;5116386;27;20047;-63
2022/02/02 01:09:46;;;;;;;3.70;2.30;;;9.20;94.70;;;;;;5134070;27;20043;-63
2022/02/02 01:20:33;;;;;;;3.25;2.00;;;9.20;94.70;;;;;;5134645;27;20050;-63
2022/02/02 01:28:36;;;;;;;3.65;2.10;;;9.20;94.70;;;;;;5099373;28;20047;-63
2022/02/02 01:31:03;;;;;;;3.58;2.40;;;9.20;94.80;;;;;;5116514;28;20122;-63
2022/02/02 01:33:32;;;;;;;7.00;2.22;;;9.10;94.90;;;;;;5099544;28;20051;-63
2022/02/02 01:36:02;;;;;;;6.95;2.13;;;9.10;95.10;;;;;;5099522;28;20100;-63
2022/02/02 01:38:33;;;;;;;3.85;1.75;;;9.10;95.30;;;;;;5082114;28;20051;-63
2022/02/02 01:41:06;;;;;;;6.75;2.75;;;9.10;95.10;;;;;;5116400;28;20035;-63
2022/02/02 01:43:45;;;;;;;4.93;2.00;;;9.20;95.10;;;;;;5082776;28;20070;-63
2022/02/02 01:46:16;;;;;;;6.18;2.05;;;9.20;95.20;;;;;;5116276;28;20100;-63
2022/02/02 01:49:00;;;;;;;4.45;2.45;;;9.20;95.30;;;;;;5116365;28;20040;-63
2022/02/02 01:54:15;;;;;;;2.30;1.58;;;9.30;95.60;;;;;;5115506;28;20447;-63
2022/02/02 01:56:43;;;;;;;5.00;1.67;;;9.30;95.70;;;;;;5116168;28;20047;-63
2022/02/02 01:59:39;;;;;;;4.35;1.92;;;9.40;95.80;;;;;;5115805;28;20066;-63
2022/02/02 02:02:08;;;;;;;9.10;2.97;;;9.40;95.90;;;;;;5099159;28;20084;-63
2022/02/02 02:04:37;;;;;;;30.35;2.85;;;9.40;96.00;;;;;;5099405;28;20047;-63
2022/02/02 02:07:05;;;;;;;4.15;2.83;;;9.40;96.00;;;;;;5098937;28;20046;-65
2022/02/02 02:09:33;;;;;;;3.97;2.30;;;9.50;96.10;;;;;;5115891;28;20463;-63
2022/02/02 02:12:07;;;;;;;4.50;2.03;;;9.40;96.20;;;;;;5115976;28;20062;-63
2022/02/02 02:17:03;;;;;;;2.85;2.38;;;9.50;96.40;;;;;;5098872;28;20040;-63
2022/02/02 02:19:31;;;;;;;5.78;1.95;;;9.40;96.50;;;;;;5115888;28;20122;-63
2022/02/02 02:21:58;;;;;;;4.95;2.08;;;9.40;96.50;;;;;;5116057;28;20456;-63
2022/02/02 02:24:26;;;;;;;5.32;2.53;;;9.40;96.60;;;;;;5099105;28;20039;-64
2022/02/02 02:26:53;;;;;;;5.93;2.33;;;9.50;96.60;;;;;;5115834;27;20112;-63
2022/02/02 02:39:54;;;;;;;8.32;3.45;;;9.50;96.60;;;;;;5102458;27;20097;-63
2022/02/02 02:56:25;;;;;;;4.13;1.85;;;9.50;96.40;;;;;;5098380;28;20040;-63
2022/02/02 02:59:06;;;;;;;5.03;2.78;;;9.50;96.60;;;;;;5081729;28;20040;-63
2022/02/02 03:51:22;;;;;;;2.75;1.75;;;9.00;96.10;;;;;;5097344;28;20188;-64
2022/02/02 03:59:13;;;;;;;4.05;2.40;;;8.80;95.80;;;;;;5135870;27;20039;-63
2022/02/02 04:04:45;;;;;;;5.57;3.22;;;8.80;95.80;;;;;;5117645;27;20061;-63
2022/02/02 04:07:22;;;;;;;7.10;2.55;;;8.70;95.70;;;;;;5135862;27;20084;-63
2022/02/02 04:09:50;;;;;;;8.40;2.20;;;8.60;95.70;;;;;;5117558;27;20053;-63
2022/02/02 04:13:10;;;;;;;4.80;2.35;;;8.60;95.60;;;;;;5117793;27;20042;-64
2022/02/02 04:18:10;;;;;;;6.30;2.53;;;8.60;95.60;;;;;;5100130;27;20504;-63
2022/02/02 04:38:03;;;;;;;4.22;2.25;;;8.40;94.70;;;;;;5116926;27;20069;-63
2022/02/02 04:59:26;;;;;;;4.53;2.47;;;8.10;94.90;;;;;;5116632;27;20121;-62
2022/02/02 05:02:50;;;;;;;7.60;2.60;;;8.10;95.00;;;;;;5083064;27;20050;-63
2022/02/02 05:07:53;;;;;;;6.88;3.65;;;8.10;95.20;;;;;;5134789;27;20455;-63
2022/02/02 05:15:50;;;;;;;4.13;2.75;;;8.10;95.50;;;;;;5099609;27;20091;-63
2022/02/02 05:51:22;;;;;;;8.23;2.92;;;8.30;95.00;;;;;;5116149;28;20107;-63
2022/02/02 05:53:51;;;;;;;3.65;2.20;;;8.30;94.80;;;;;;5087303;28;20059;-63
2022/02/02 05:56:18;;;;;;;3.65;2.22;;;8.30;94.70;;;;;;5095789;28;20427;-64
2022/02/02 05:58:47;;;;;;;3.53;2.08;;;8.30;94.60;;;;;;5078703;28;20043;-63
2022/02/02 06:01:16;;;;;;;4.82;2.50;;;8.30;94.50;;;;;;5095739;28;20048;-63
2022/02/02 06:03:53;;;;;;;5.38;2.70;;;8.30;94.40;;;;;;5116273;28;20397;-63
2022/02/02 06:06:23;;;;;;;8.98;3.70;;;8.40;94.30;;;;;;5099650;28;20058;-63
2022/02/02 06:08:53;;;;;;;6.10;3.15;;;8.30;94.20;;;;;;5082236;28;20480;-63
2022/02/02 06:11:23;;;;;;;2.92;1.90;;;8.40;94.00;;;;;;5082568;28;20047;-63
2022/02/02 06:13:55;;;;;;;5.63;2.50;;;8.40;94.00;;;;;;5099395;28;20126;-63
2022/02/02 06:16:26;;;;;;;6.25;2.90;;;8.40;93.70;;;;;;5117517;28;20126;-63
2022/02/02 06:18:56;;;;;;;5.30;2.55;;;8.50;93.60;;;;;;5117566;28;20046;-63
2022/02/02 06:21:35;;;;;;;5.65;3.45;;;8.70;93.30;;;;;;5099366;28;20052;-63
2022/02/02 06:24:17;;;;;;;4.90;2.08;;;9.00;93.00;;;;;;5117292;28;20059;-63
2022/02/02 06:26:48;;;;;;;3.33;2.08;;;9.40;92.60;;;;;;5082193;28;20040;-63
2022/02/02 06:29:17;;;;;;;7.07;2.25;;;9.90;92.00;;;;;;5082192;28;20050;-63
2022/02/02 06:31:44;;;;;;;7.40;3.85;;;10.40;91.50;;;;;;5099099;28;20489;-63
2022/02/02 06:34:14;;;;;;;8.30;3.60;;;10.70;90.80;;;;;;5082112;28;20486;-63
2022/02/02 06:36:42;;;;;;;6.50;3.65;;;11.20;90.50;;;;;;5082010;28;20044;-63
2022/02/02 06:39:11;;;;;;;7.38;2.80;;;11.60;89.60;;;;;;5081131;28;20062;-62
2022/02/02 06:41:40;;;;;;;6.50;3.25;;;12.10;89.00;;;;;;5075413;28;20036;-64
2022/02/02 06:44:08;;;;;;;5.85;2.83;;;12.50;88.00;;;;;;5088294;28;20555;-62
2022/02/02 06:46:39;;;;;;;5.15;2.90;;;13.10;86.80;;;;;;5097755;28;20036;-62
2022/02/02 06:49:09;;;;;;;7.90;4.32;;;13.50;85.80;;;;;;5080344;28;20048;-64
2022/02/02 06:51:55;;;;;;;6.00;3.30;;;14.10;84.50;;;;;;5096867;28;20362;-63
2022/02/02 06:54:44;;;;;;;5.53;2.83;;;14.60;82.90;;;;;;5121587;27;20107;-63
2022/02/02 06:57:26;;;;;;;5.88;3.00;;;15.10;81.00;;;;;;5118207;27;20035;-63
2022/02/02 07:05:54;;;;;;;5.35;1.80;;;16.60;76.80;;;;;;5137216;27;20031;-63
2022/02/02 07:11:27;;;;;;;6.47;2.10;;;17.50;74.60;;;;;;5089123;27;20047;-62
2022/02/02 07:16:43;;;;;;;5.50;2.10;;;18.10;72.20;;;;;;5118694;27;20108;-63
2022/02/02 07:25:21;;;;;;;7.03;2.20;;;17.90;71.40;;;;;;5136619;27;20042;-63
2022/02/02 07:27:55;;;;;;;6.45;2.40;;;17.70;72.20;;;;;;5118226;27;20054;-63
2022/02/02 07:33:08;;;;;;;8.63;2.78;;;17.10;72.50;;;;;;5136496;27;20054;-63
2022/02/02 07:35:55;;;;;;;4.30;2.47;;;16.80;72.40;;;;;;5118221;27;20443;-63
2022/02/02 07:38:26;;;;;;;9.10;3.80;;;16.20;72.90;;;;;;5101245;27;20472;-63
2022/02/02 07:41:04;;;;;;;5.30;2.60;;;16.00;73.60;;;;;;5136625;27;20043;-63
2022/02/02 07:43:37;;;;;;;7.03;3.88;;;15.80;74.00;;;;;;5136289;27;20139;-64
2022/02/02 07:46:07;;;;;;;6.55;2.35;;;15.80;73.80;;;;;;5118444;27;20063;-64
2022/02/02 07:48:40;;;;;;;6.30;2.78;;;15.80;73.30;;;;;;5101025;27;20146;-64
2022/02/02 07:51:09;;;;;;;4.28;2.00;;;15.50;72.20;;;;;;5136332;27;20035;-63
2022/02/02 07:53:51;;;;;;;4.22;1.95;;;15.60;72.60;;;;;;5135458;27;20078;-64
2022/02/02 07:56:34;;;;;;;7.43;2.92;;;15.50;71.80;;;;;;5117598;27;20043;-64
2022/02/02 08:02:01;;;;;;;7.90;3.50;;;15.50;71.30;;;;;;5100637;27;20043;-64
2022/02/02 08:04:30;;;;;;;4.68;2.42;;;15.30;71.40;;;;;;5100868;27;20039;-64
2022/02/02 08:06:58;;;;;;;6.72;3.50;;;14.90;73.00;;;;;;5135940;27;20486;-64
2022/02/02 08:09:43;;;;;;;8.32;2.75;;;14.80;73.50;;;;;;5100438;27;20413;-64
2022/02/02 08:12:18;;;;;;;7.95;3.47;;;14.60;74.10;;;;;;5117497;27;20135;-63
2022/02/02 08:14:54;;;;;;;6.10;2.00;;;14.50;74.80;;;;;;5108641;27;20069;-64
2022/02/02 08:17:22;;;;;;;3.78;1.83;;;14.20;74.00;;;;;;5102499;27;20119;-63
2022/02/02 08:19:52;;;;;;;6.53;2.67;;;14.10;74.70;;;;;;5126332;27;20051;-64
2022/02/02 08:22:19;;;;;;;3.55;2.17;;;14.10;75.50;;;;;;5100439;28;20078;-64
2022/02/02 08:24:47;;;;;;;3.75;2.00;;;14.10;75.50;;;;;;5122976;27;20481;-64
2022/02/02 08:27:15;;;;;;;4.18;1.60;;;14.00;74.90;;;;;;5089697;28;20410;-64
2022/02/02 08:29:43;;;;;;;6.53;2.85;;;13.80;75.10;;;;;;5116962;27;20127;-65
2022/02/02 08:32:11;;;;;;;3.55;1.70;;;13.70;75.90;;;;;;5134443;27;20131;-64
2022/02/02 08:34:46;;;;;;;6.03;2.17;;;13.70;76.90;;;;;;5074677;27;20510;-64
2022/02/02 08:37:15;;;;;;;5.32;1.80;;;13.80;77.50;;;;;;5111256;28;20439;-65
2022/02/02 08:42:13;;;;;;;4.38;2.47;;;13.90;77.90;;;;;;5130595;27;20066;-65
2022/02/02 08:45:11;;;;;;;4.63;2.03;;;14.10;78.20;;;;;;5132058;27;20050;-64
2022/02/02 08:47:30;;;;;;;4.72;2.05;;;14.20;78.50;;;;;;5111777;27;20396;-65
2022/02/02 08:49:59;;;;;;;4.28;2.35;;;14.00;77.60;;;;;;5112780;28;20044;-64
2022/02/02 08:52:40;;;;;;;4.05;2.60;;;14.10;77.90;;;;;;5093771;27;20124;-64
2022/02/02 08:55:51;;;;;;;6.07;3.30;;;14.00;78.30;;;;;;5125999;27;20054;-64
2022/02/02 08:58:32;;;;;;;10.55;3.40;;;14.00;77.80;;;;;;5107872;28;20140;-64
2022/02/02 09:01:07;;;;;;;5.35;2.08;;;14.20;78.10;;;;;;5079966;28;20122;-63
2022/02/02 09:06:21;;;;;;;4.65;2.00;;;14.20;78.70;;;;;;5107973;27;20047;-64
2022/02/02 09:08:51;;;;;;;6.13;2.15;;;14.40;79.00;;;;;;5104633;28;20064;-64
2022/02/02 09:35:43;;;;;;;2.85;1.63;;;14.20;78.30;;;;;;5095908;28;20554;-64
2022/02/02 09:38:11;;;;;;;4.82;1.95;;;14.30;79.40;;;;;;5106793;28;20097;-64
2022/02/02 09:43:18;;;;;;;6.30;1.77;;;14.20;78.90;;;;;;5110907;27;20047;-63
2022/02/02 09:45:56;;;;;;;4.93;2.08;;;14.30;79.30;;;;;;5117590;27;20047;-65
2022/02/02 09:48:42;;;;;;;4.60;2.20;;;14.30;78.50;;;;;;5118228;27;20035;-64
2022/02/02 09:51:15;;;;;;;4.68;1.88;;;14.30;78.30;;;;;;5109342;28;20400;-64
2022/02/02 09:53:58;;;;;;;4.85;2.85;;;14.30;78.50;;;;;;5066070;28;20054;-64
2022/02/02 09:56:48;;;;;;;5.80;2.22;;;14.40;78.60;;;;;;5103395;27;20039;-65
2022/02/02 10:05:12;;;;;;;8.30;1.75;;;14.20;78.60;;;;;;5082108;28;20443;-64
2022/02/02 10:15:58;;;;;;;11.13;2.13;;;14.20;79.50;;;;;;5118579;27;20051;-65
2022/02/02 10:18:33;;;;;;;4.75;1.80;;;14.10;80.60;;;;;;5118823;27;20094;-65
2022/02/02 10:21:02;;;;;;;6.07;2.05;;;14.00;80.80;;;;;;5126783;27;20044;-65
2022/02/02 10:23:34;;;;;;;10.30;2.60;;;13.80;81.40;;;;;;5101093;28;20039;-65
2022/02/02 10:26:14;;;;;;;4.85;2.22;;;13.50;81.60;;;;;;5099225;28;20050;-68
2022/02/02 10:28:43;;;;;;;4.70;2.05;;;13.30;82.70;;;;;;5086576;27;20039;-66
2022/02/02 10:31:11;;;;;;;7.47;3.33;;;13.40;83.00;;;;;;5092651;27;20047;-67
2022/02/02 10:33:39;;;;;;;7.90;2.65;;;13.40;83.30;;;;;;5096551;27;20051;-67
2022/02/02 10:36:18;;;;;;;12.77;3.50;;;13.50;83.30;;;;;;5110426;27;20043;-63
2022/02/02 10:39:08;;;;;;;8.10;3.05;;;13.40;83.70;;;;;;5111138;28;20085;-65
2022/02/02 10:41:58;;;;;;;7.45;3.78;;;13.30;83.80;;;;;;5099594;28;20047;-65
2022/02/02 10:44:38;;;;;;;6.40;2.70;;;13.50;86.80;;;;;;5106339;27;20039;-62
2022/02/02 10:56:19;;;;;;;4.90;2.60;;;13.50;84.00;;;;;;5098460;28;20051;-62
2022/02/02 11:08:51;;;;;;;6.33;2.13;;;13.30;84.10;;;;;;5098953;27;20098;-62
2022/02/02 11:11:18;;;;;;;3.88;1.90;;;13.40;83.40;;;;;;5118753;27;20039;-62
2022/02/02 11:13:49;;;;;;;6.10;2.00;;;13.50;82.70;;;;;;5119085;27;20105;-62
2022/02/02 11:16:22;;;;;;;2.65;1.60;;;13.70;81.60;;;;;;5101849;27;20043;-61
2022/02/02 11:18:53;;;;;;;7.18;2.58;;;13.40;80.20;;;;;;5137090;27;20035;-61
2022/02/02 11:21:31;;;;;;;4.55;1.63;;;13.30;81.00;;;;;;5136878;27;20134;-62
2022/02/02 11:24:12;;;;;;;3.95;1.95;;;13.20;80.90;;;;;;5106137;28;20072;-61
2022/02/02 11:26:48;;;;;;;9.30;3.65;;;13.20;80.80;;;;;;5076181;28;20519;-61
2022/02/02 11:29:37;;;;;;;6.10;3.83;;;13.30;81.40;;;;;;5120021;27;20041;-62
2022/02/02 11:32:10;;;;;;;45.38;24.40;;;13.50;84.10;;;;;;5129850;27;20043;-61
2022/02/02 11:34:40;;;;;;;9.35;5.53;;;13.90;86.70;;;;;;5101314;28;20059;-61
2022/02/02 11:37:11;;;;;;;11.57;6.30;;;13.80;80.50;;;;;;5098259;28;20036;-61
2022/02/02 11:40:01;;;;;;;17.58;9.68;;;13.80;81.20;;;;;;5112799;27;20117;-61
2022/02/02 11:43:00;;;;;;;6.50;3.45;;;13.80;80.70;;;;;;5095672;28;20055;-61
2022/02/02 11:46:01;;;;;;;7.75;3.30;;;13.30;80.40;;;;;;5130107;27;20047;-61
2022/02/02 11:48:57;;;;;;;9.82;2.70;;;13.20;81.60;;;;;;5080807;27;20043;-62
2022/02/02 11:51:53;;;;;;;7.90;3.47;;;13.00;81.90;;;;;;5095869;28;20079;-61
2022/02/02 11:54:31;;;;;;;6.07;3.58;;;13.00;82.20;;;;;;5088491;28;20140;-61
2022/02/02 11:57:03;;;;;;;3.40;2.15;;;12.80;82.60;;;;;;5077255;28;20496;-61
2022/02/02 11:59:50;;;;;;;3.33;2.20;;;12.70;82.90;;;;;;5061948;28;20166;-61
2022/02/02 12:02:47;;;;;;;6.03;3.13;;;12.70;83.20;;;;;;5094279;28;20486;-62
2022/02/02 12:07:59;;;;;;;4.88;2.70;;;12.70;84.30;;;;;;5100150;28;20040;-62
2022/02/02 12:10:57;;;;;;;3.30;1.90;;;12.70;85.00;;;;;;5106580;28;20040;-62
2022/02/02 12:20:36;;;;;;;12.38;3.45;;;12.70;84.90;;;;;;5083683;28;20131;-62
2022/02/02 12:47:33;;;;;;;4.47;2.08;;;13.40;83.80;;;;;;5070906;28;19920;-61
2022/02/02 12:50:26;;;;;;;5.32;2.15;;;13.30;83.50;;;;;;5071546;28;20059;-61
2022/02/02 12:56:15;;;;;;;6.03;2.20;;;13.30;84.90;;;;;;5075309;28;20051;-61
2022/02/02 12:58:46;;;;;;;2.72;1.30;;;13.20;85.40;;;;;;5074770;28;20048;-62
2022/02/02 13:01:21;;;;;;;3.03;1.33;;;13.00;85.00;;;;;;5072836;28;20093;-61
2022/02/02 13:03:50;;;;;;;5.72;2.92;;;13.00;85.60;;;;;;5090978;28;20052;-61
2022/02/02 13:06:23;;;;;;;3.95;1.90;;;13.00;85.80;;;;;;5074634;28;20044;-61
2022/02/02 13:09:00;;;;;;;3.42;2.10;;;12.90;85.80;;;;;;5091628;28;20507;-61
2022/02/02 13:11:32;;;;;;;7.68;2.85;;;12.80;86.20;;;;;;5091486;28;20120;-60
2022/02/02 13:14:04;;;;;;;4.00;2.10;;;12.70;86.40;;;;;;5091842;28;20051;-60
2022/02/02 13:16:38;;;;;;;3.63;1.85;;;12.80;87.00;;;;;;5091651;28;20051;-60
2022/02/02 13:19:18;;;;;;;5.45;1.63;;;12.80;86.30;;;;;;5091584;28;20071;-60
2022/02/02 13:21:53;;;;;;;6.90;2.53;;;12.80;85.80;;;;;;5091470;28;20059;-60
2022/02/02 13:24:27;;;;;;;3.88;1.58;;;12.80;85.60;;;;;;5095673;28;20040;-61
2022/02/02 13:27:07;;;;;;;2.85;1.83;;;12.70;85.90;;;;;;5097084;28;20481;-60
2022/02/02 13:29:43;;;;;;;10.77;2.63;;;12.70;86.00;;;;;;5078629;28;20047;-61
2022/02/02 13:34:51;;;;;;;3.45;2.00;;;12.80;86.50;;;;;;5112980;28;19920;-60
2022/02/02 13:43:05;;;;;;;3.25;1.35;;;12.80;86.30;;;;;;5117149;28;20043;-61
2022/02/02 13:51:30;;;;;;;4.38;1.95;;;12.90;86.50;;;;;;5079112;28;20135;-61
2022/02/02 13:54:42;;;;;;;4.60;1.90;;;12.90;85.80;;;;;;5089621;28;20545;-61
2022/02/02 14:25:51;;;;;;;4.82;2.47;;;12.70;87.30;;;;;;5093089;28;20083;-63
2022/02/02 14:33:47;;;;;;;4.40;1.98;;;12.70;87.80;;;;;;5085672;28;20036;-66
2022/02/02 14:36:19;;;;;;;7.25;2.78;;;12.70;86.50;;;;;;5111132;28;20040;-65
2022/02/02 14:38:58;;;;;;;5.93;1.70;;;12.70;86.70;;;;;;5078421;28;20051;-64
2022/02/02 14:44:07;;;;;;;4.40;1.73;;;12.50;86.60;;;;;;5115497;28;20083;-65
2022/02/02 14:46:45;;;;;;;3.70;1.35;;;12.50;86.60;;;;;;5096695;28;20116;-65
2022/02/02 14:49:21;;;;;;;4.57;1.60;;;12.50;86.60;;;;;;5078867;28;20540;-64
2022/02/02 15:23:53;;;;;;;5.63;1.98;;;12.20;91.20;;;;;;5060643;28;20055;-65
2022/02/02 15:28:16;;;;;;;6.45;2.72;;;12.30;90.90;;;;;;5101312;27;20043;-65
2022/02/02 15:31:02;;;;;;;8.63;3.92;;;12.20;90.70;;;;;;5085844;27;20044;-65
2022/02/02 15:33:31;;;;;;;11.02;5.07;;;12.20;90.80;;;;;;5105423;27;20027;-65
2022/02/02 15:36:30;;;;;;;11.07;4.88;;;12.20;90.80;;;;;;5065191;27;20047;-66
2022/02/02 15:38:54;;;;;;;5.25;2.58;;;12.10;90.60;;;;;;5105256;27;20085;-65
2022/02/02 15:41:33;;;;;;;4.40;2.45;;;12.10;90.50;;;;;;5102698;27;20135;-65
2022/02/02 15:58:30;;;;;;;6.68;2.72;;;11.90;90.80;;;;;;5097787;27;20040;-64
2022/02/02 16:03:39;;;;;;;5.95;3.13;;;11.90;91.10;;;;;;5123265;27;20073;-65
2022/02/02 16:08:51;;;;;;;5.97;2.85;;;11.80;91.20;;;;;;5123226;27;20051;-65
2022/02/02 16:11:27;;;;;;;3.88;2.17;;;11.80;91.20;;;;;;5105589;27;20047;-66
2022/02/02 16:14:03;;;;;;;5.30;3.47;;;11.70;91.30;;;;;;5107423;27;20066;-66
2022/02/02 16:19:11;;;;;;;11.15;5.85;;;11.70;91.70;;;;;;5118669;27;20043;-66
2022/02/02 16:35:44;;;;;;;6.93;3.67;;;11.60;92.10;;;;;;5079915;28;20454;-64
2022/02/02 16:38:14;;;;;;;8.85;3.72;;;11.60;92.10;;;;;;5096739;28;20042;-64
2022/02/02 16:40:44;;;;;;;7.57;4.45;;;11.50;92.20;;;;;;5087266;27;20520;-64
2022/02/02 16:43:15;;;;;;;5.45;2.83;;;11.60;92.30;;;;;;5121633;27;20092;-64
2022/02/02 16:45:47;;;;;;;9.55;3.50;;;11.50;92.40;;;;;;5119399;27;20061;-64
2022/02/02 16:48:15;;;;;;;4.57;2.83;;;11.50;92.30;;;;;;5099390;27;20043;-65
2022/02/02 16:50:49;;;;;;;7.47;3.22;;;11.50;92.10;;;;;;5108579;27;20118;-64
2022/02/02 16:53:41;;;;;;;9.23;3.58;;;11.50;92.10;;;;;;5101209;27;20036;-64
2022/02/02 17:29:55;;;;;;;4.22;2.15;;;11.50;92.60;;;;;;5090198;28;20452;-65
2022/02/02 17:35:19;;;;;;;9.63;4.25;;;11.50;92.70;;;;;;5070776;28;20486;-64
2022/02/02 17:56:14;;;;;;;5.60;2.58;;;11.60;94.10;;;;;;5111970;28;20101;-66
2022/02/02 18:20:27;;;;;;;6.67;3.10;;;11.30;93.70;;;;;;5055024;28;20045;-65
2022/02/02 18:26:15;;;;;;;4.65;3.08;;;11.20;93.40;;;;;;5035701;28;20041;-65
2022/02/02 18:31:50;;;;;;;8.73;3.85;;;11.20;93.30;;;;;;5061068;28;20049;-66
2022/02/02 18:55:59;;;;;;;11.18;5.50;;;11.10;93.10;;;;;;5061242;28;20492;-65
2022/02/02 18:58:48;;;;;;;5.28;3.45;;;11.10;93.20;;;;;;5096042;28;20044;-65
2022/02/02 19:39:22;;;;;;;6.10;2.75;;;11.10;92.30;;;;;;5076227;28;20530;-67
2022/02/02 19:53:02;;;;;;;5.63;3.35;;;11.10;92.40;;;;;;5113644;27;20137;-66
2022/02/02 20:07:07;;;;;;;8.13;3.78;;;11.10;92.90;;;;;;5090678;28;20399;-65
2022/02/02 20:12:41;;;;;;;4.93;2.25;;;11.10;92.80;;;;;;5092234;28;20087;-64
2022/02/02 20:15:14;;;;;;;5.93;2.50;;;11.20;92.20;;;;;;5015307;28;20460;-66
2022/02/02 20:17:50;;;;;;;6.72;2.47;;;11.10;91.70;;;;;;5011062;28;20408;-66
2022/02/02 20:20:22;;;;;;;2.53;1.33;;;11.10;91.40;;;;;;5003399;28;20520;-66
2022/02/02 20:22:51;;;;;;;3.65;1.60;;;11.10;91.20;;;;;;5030001;28;20058;-66
2022/02/02 20:25:19;;;;;;;2.95;1.65;;;11.20;91.20;;;;;;5027138;28;20092;-66
2022/02/02 20:28:03;;;;;;;2.63;1.40;;;11.20;91.30;;;;;;4999601;28;20049;-66
2022/02/02 20:30:36;;;;;;;5.68;2.38;;;11.20;91.20;;;;;;5026188;28;20843;-66
2022/02/02 20:33:07;;;;;;;3.80;1.90;;;11.10;92.50;;;;;;5030589;28;20053;-67
2022/02/02 20:35:36;;;;;;;4.15;1.90;;;11.10;94.50;;;;;;5020451;28;20429;-66
2022/02/02 20:38:05;;;;;;;4.38;1.70;;;11.00;95.70;;;;;;5030476;28;20377;-65
2022/02/02 20:40:36;;;;;;;5.80;2.40;;;10.90;96.10;;;;;;5025766;28;20056;-67
2022/02/02 20:43:08;;;;;;;4.78;1.35;;;10.80;96.10;;;;;;5025244;28;20057;-67
2022/02/02 21:03:16;;;;;;;2.97;1.50;;;10.30;95.00;;;;;;5004217;28;20074;-66
2022/02/02 21:10:49;;;;;;;4.60;2.15;;;10.30;94.70;;;;;;5062147;28;20139;-66
2022/02/02 21:16:05;;;;;;;4.30;2.13;;;10.30;94.90;;;;;;5073593;28;20052;-66
2022/02/02 21:18:41;;;;;;;2.92;1.52;;;10.30;94.90;;;;;;5073986;28;20117;-66
2022/02/02 21:21:22;;;;;;;2.78;1.60;;;10.30;94.90;;;;;;5048853;28;20052;-66
2022/02/02 21:27:04;;;;;;;2.42;1.50;;;10.20;95.00;;;;;;5057050;28;20418;-66
2022/02/02 21:29:32;;;;;;;4.18;2.05;;;10.20;94.90;;;;;;5060437;28;20048;-64
2022/02/02 21:32:00;;;;;;;3.35;1.52;;;10.20;95.30;;;;;;5076223;28;20048;-65
2022/02/02 21:34:30;;;;;;;2.47;1.50;;;10.20;95.40;;;;;;5061398;28;20044;-65
2022/02/02 21:37:03;;;;;;;4.63;1.83;;;10.20;95.30;;;;;;5048515;28;20045;-64
2022/02/02 21:39:52;;;;;;;4.15;2.08;;;10.30;95.40;;;;;;5068569;28;20048;-65
2022/02/02 21:42:22;;;;;;;2.30;1.55;;;10.20;95.30;;;;;;5081294;28;20048;-66
2022/02/02 21:45:02;;;;;;;6.10;2.38;;;10.30;94.90;;;;;;5048751;28;20048;-65
2022/02/02 21:47:35;;;;;;;8.02;2.17;;;10.30;94.40;;;;;;5083166;28;20052;-67
2022/02/02 21:50:10;;;;;;;2.42;1.65;;;10.30;94.60;;;;;;5129979;27;20046;-66
2022/02/02 21:52:44;;;;;;;4.60;2.25;;;10.40;94.40;;;;;;5117870;28;20058;-65
2022/02/02 21:55:12;;;;;;;2.85;1.60;;;10.40;94.40;;;;;;5136772;27;20396;-65
2022/02/02 21:57:41;;;;;;;3.72;1.77;;;10.50;94.50;;;;;;5097621;28;20051;-65
2022/02/02 22:00:11;;;;;;;3.88;1.80;;;10.50;94.50;;;;;;5096971;28;20523;-66
2022/02/02 22:02:41;;;;;;;5.30;1.58;;;10.50;94.50;;;;;;5091342;27;20439;-67
2022/02/02 22:05:09;;;;;;;7.30;2.92;;;10.50;94.70;;;;;;5113622;28;20035;-66
2022/02/02 22:07:37;;;;;;;7.85;3.08;;;10.50;94.90;;;;;;5096256;27;20039;-65
2022/02/02 22:10:09;;;;;;;5.10;1.90;;;10.50;95.00;;;;;;5081197;28;20093;-66
2022/02/02 22:12:39;;;;;;;5.63;3.30;;;10.50;95.20;;;;;;5097404;28;20063;-65
2022/02/02 22:15:11;;;;;;;5.03;2.20;;;10.50;95.20;;;;;;5111531;28;20043;-67
2022/02/02 22:17:50;;;;;;;6.05;2.30;;;10.50;95.10;;;;;;5107558;28;20122;-65
2022/02/02 22:20:21;;;;;;;5.63;2.60;;;10.40;95.10;;;;;;5107568;28;20165;-66
2022/02/02 22:22:49;;;;;;;3.17;1.90;;;10.50;95.00;;;;;;5109648;28;20063;-68
2022/02/02 22:25:19;;;;;;;5.72;2.22;;;10.50;95.00;;;;;;5095302;28;20674;-65
2022/02/02 22:27:52;;;;;;;6.65;2.83;;;10.50;95.00;;;;;;5129508;28;20039;-66
2022/02/02 22:30:20;;;;;;;8.90;2.58;;;10.60;95.20;;;;;;5111828;28;20039;-66
2022/02/02 22:32:50;;;;;;;7.97;2.35;;;10.50;95.00;;;;;;5077047;28;20044;-66
2022/02/02 22:35:31;;;;;;;5.93;2.10;;;10.60;95.20;;;;;;5109609;28;20055;-65
2022/02/02 22:38:00;;;;;;;4.68;2.38;;;10.60;95.30;;;;;;5117793;28;20036;-66
2022/02/02 22:40:28;;;;;;;10.48;2.53;;;10.60;95.20;;;;;;5093957;27;20040;-66
2022/02/02 22:43:03;;;;;;;4.90;2.35;;;10.60;95.10;;;;;;5132393;28;20051;-66
2022/02/02 22:45:33;;;;;;;3.22;2.00;;;10.70;95.20;;;;;;5095925;27;20063;-65
2022/02/02 22:48:00;;;;;;;4.95;2.50;;;10.60;95.10;;;;;;5093493;27;20043;-65
2022/02/02 22:50:29;;;;;;;5.35;2.63;;;10.60;95.00;;;;;;5114412;27;20046;-65
2022/02/02 22:52:58;;;;;;;4.88;2.33;;;10.60;95.30;;;;;;5094838;27;20451;-66
2022/02/02 22:55:25;;;;;;;8.43;2.20;;;10.60;95.00;;;;;;5089151;28;21911;-66
2022/02/02 22:57:53;;;;;;;4.75;1.80;;;10.50;93.90;;;;;;5114732;28;20492;-66
2022/02/02 23:00:32;;;;;;;6.28;1.70;;;10.50;93.50;;;;;;5114689;28;20043;-66
2022/02/02 23:03:17;;;;;;;5.07;1.77;;;10.50;93.00;;;;;;5103371;28;20036;-66
2022/02/02 23:06:00;;;;;;;3.08;1.40;;;10.50;92.20;;;;;;5076213;28;20114;-66
2022/02/02 23:08:29;;;;;;;2.60;1.40;;;10.50;91.90;;;;;;5109115;28;20081;-66
2022/02/02 23:10:58;;;;;;;6.25;1.85;;;10.50;91.90;;;;;;5101828;28;20044;-65
2022/02/02 23:13:27;;;;;;;4.18;1.95;;;10.50;91.70;;;;;;5093602;28;20043;-67
2022/02/02 23:16:03;;;;;;;2.20;1.52;;;10.50;91.70;;;;;;5056583;28;20044;-66
2022/02/02 23:18:35;;;;;;;4.80;1.60;;;10.50;91.90;;;;;;5096328;28;20122;-67
2022/02/02 23:21:07;;;;;;;3.65;2.55;;;10.50;91.70;;;;;;5080658;28;20071;-65
2022/02/02 23:23:42;;;;;;;4.53;1.50;;;10.60;91.80;;;;;;5114954;28;20537;-65
2022/02/02 23:26:11;;;;;;;5.43;1.75;;;10.60;91.50;;;;;;5092318;28;20040;-66
2022/02/02 23:28:45;;;;;;;2.92;1.55;;;10.50;91.20;;;;;;5109348;28;20048;-65
2022/02/02 23:31:15;;;;;;;3.50;2.28;;;10.60;91.20;;;;;;5095744;28;20042;-67
2022/02/02 23:33:44;;;;;;;3.25;1.50;;;10.60;91.20;;;;;;5112994;27;20054;-65
2022/02/02 23:36:13;;;;;;;2.03;1.75;;;10.60;91.00;;;;;;5107378;28;20059;-67
2022/02/02 23:38:41;;;;;;;3.35;1.50;;;10.60;90.70;;;;;;5105768;27;20045;-65
2022/02/02 23:43:54;;;;;;;3.78;1.75;;;10.50;90.10;;;;;;5111110;28;20043;-66
2022/02/02 23:46:28;;;;;;;1.98;1.17;;;10.40;90.00;;;;;;5095767;28;20067;-65
2022/02/02 23:49:13;;;;;;;3.80;1.67;;;10.40;90.10;;;;;;5095120;28;20370;-67
2022/02/02 23:51:45;;;;;;;5.18;1.98;;;10.50;90.10;;;;;;5085509;28;20040;-65
2022/02/02 23:54:13;;;;;;;2.97;1.58;;;10.50;90.30;;;;;;5080398;28;20123;-65
2022/02/02 23:59:25;;;;;;;4.50;2.03;;;10.50;90.10;;;;;;5083613;28;20040;-66
